sensor_id;sensor_type;location;lat;lon;timestamp;P1;durP1;ratioP1;P2;durP2;ratioP2
2462;SDS011;1243;54.298;10.172;2023-01-28T00:00:55;5.90;;;3.70;;
2462;SDS011;1243;54.298;10.172;2023-01-28T00:03:21;4.40;;;4.00;;
2462;SDS011;1243;54.298;10.172;2023-01-28T00:05:46;4.07;;;3.50;;
2462;SDS011;1243;54.298;10.172;2023-01-28T00:08:12;4.00;;;3.70;;
2462;SDS011;1243;54.298;10.172;2023-01-28T00:10:39;4.70;;;3.57;;
2462;SDS011;1243;54.298;10.172;2023-01-28T00:13:07;4.30;;;4.00;;
2462;SDS011;1243;54.298;10.172;2023-01-28T00:15:34;3.97;;;3.70;;
2462;SDS011;1243;54.298;10.172;2023-01-28T00:17:59;4.77;;;4.37;;
2462;SDS011;1243;54.298;10.172;2023-01-28T00:20:25;3.93;;;3.63;;
2462;SDS011;1243;54.298;10.172;2023-01-28T00:22:51;4.93;;;4.43;;
2462;SDS011;1243;54.298;10.172;2023-01-28T00:25:16;4.40;;;4.03;;
2462;SDS011;1243;54.298;10.172;2023-01-28T00:27:43;5.23;;;3.80;;
2462;SDS011;1243;54.298;10.172;2023-01-28T00:30:09;3.70;;;2.80;;
2462;SDS011;1243;54.298;10.172;2023-01-28T00:32:35;4.07;;;3.67;;
2462;SDS011;1243;54.298;10.172;2023-01-28T00:35:01;7.30;;;3.27;;
2462;SDS011;1243;54.298;10.172;2023-01-28T00:37:26;4.67;;;4.27;;
2462;SDS011;1243;54.298;10.172;2023-01-28T00:39:52;3.33;;;2.80;;
2462;SDS011;1243;54.298;10.172;2023-01-28T00:42:18;10.33;;;3.67;;
2462;SDS011;1243;54.298;10.172;2023-01-28T00:44:43;3.30;;;3.10;;
2462;SDS011;1243;54.298;10.172;2023-01-28T00:47:09;3.60;;;3.40;;
2462;SDS011;1243;54.298;10.172;2023-01-28T00:49:35;3.00;;;2.80;;
2462;SDS011;1243;54.298;10.172;2023-01-28T00:52:00;3.70;;;3.50;;
2462;SDS011;1243;54.298;10.172;2023-01-28T00:54:27;3.30;;;3.10;;
2462;SDS011;1243;54.298;10.172;2023-01-28T00:56:52;4.23;;;4.00;;
2462;SDS011;1243;54.298;10.172;2023-01-28T00:59:18;4.30;;;4.00;;
2462;SDS011;1243;54.298;10.172;2023-01-28T01:01:44;4.00;;;3.70;;
2462;SDS011;1243;54.298;10.172;2023-01-28T01:04:09;4.20;;;3.90;;
2462;SDS011;1243;54.298;10.172;2023-01-28T01:06:36;4.43;;;4.03;;
2462;SDS011;1243;54.298;10.172;2023-01-28T01:09:04;4.10;;;3.80;;
2462;SDS011;1243;54.298;10.172;2023-01-28T01:11:32;4.53;;;4.17;;
2462;SDS011;1243;54.298;10.172;2023-01-28T01:13:58;4.90;;;4.27;;
2462;SDS011;1243;54.298;10.172;2023-01-28T01:16:26;7.33;;;3.77;;
2462;SDS011;1243;54.298;10.172;2023-01-28T01:18:54;4.27;;;3.97;;
2462;SDS011;1243;54.298;10.172;2023-01-28T01:21:21;3.33;;;3.03;;
2462;SDS011;1243;54.298;10.172;2023-01-28T01:23:49;3.50;;;3.30;;
2462;SDS011;1243;54.298;10.172;2023-01-28T01:26:16;3.80;;;3.60;;
2462;SDS011;1243;54.298;10.172;2023-01-28T01:28:42;3.73;;;3.43;;
2462;SDS011;1243;54.298;10.172;2023-01-28T01:31:12;3.40;;;3.20;;
2462;SDS011;1243;54.298;10.172;2023-01-28T01:33:40;3.93;;;3.63;;
2462;SDS011;1243;54.298;10.172;2023-01-28T01:36:07;3.67;;;3.37;;
2462;SDS011;1243;54.298;10.172;2023-01-28T01:38:33;3.50;;;3.30;;
2462;SDS011;1243;54.298;10.172;2023-01-28T01:41:01;4.07;;;3.87;;
2462;SDS011;1243;54.298;10.172;2023-01-28T01:43:47;3.77;;;3.57;;
2462;SDS011;1243;54.298;10.172;2023-01-28T01:46:19;4.05;;;3.75;;
2462;SDS011;1243;54.298;10.172;2023-01-28T01:48:56;4.28;;;3.70;;
2462;SDS011;1243;54.298;10.172;2023-01-28T01:51:25;3.50;;;3.30;;
2462;SDS011;1243;54.298;10.172;2023-01-28T01:53:55;3.80;;;3.50;;
2462;SDS011;1243;54.298;10.172;2023-01-28T01:56:23;2.95;;;2.85;;
2462;SDS011;1243;54.298;10.172;2023-01-28T01:58:54;4.13;;;3.92;;
2462;SDS011;1243;54.298;10.172;2023-01-28T02:01:22;3.72;;;3.42;;
2462;SDS011;1243;54.298;10.172;2023-01-28T02:03:58;3.83;;;3.53;;
2462;SDS011;1243;54.298;10.172;2023-01-28T02:06:28;7.90;;;3.87;;
2462;SDS011;1243;54.298;10.172;2023-01-28T02:08:55;4.82;;;4.25;;
2462;SDS011;1243;54.298;10.172;2023-01-28T02:11:23;4.18;;;3.33;;
2462;SDS011;1243;54.298;10.172;2023-01-28T02:13:52;7.22;;;4.10;;
2462;SDS011;1243;54.298;10.172;2023-01-28T02:16:20;4.82;;;4.40;;
2462;SDS011;1243;54.298;10.172;2023-01-28T02:18:46;5.30;;;3.78;;
2462;SDS011;1243;54.298;10.172;2023-01-28T02:35:00;3.53;;;3.33;;
2462;SDS011;1243;54.298;10.172;2023-01-28T02:37:43;5.25;;;4.15;;
2462;SDS011;1243;54.298;10.172;2023-01-28T02:40:24;7.20;;;5.10;;
2462;SDS011;1243;54.298;10.172;2023-01-28T02:42:58;5.80;;;5.30;;
2462;SDS011;1243;54.298;10.172;2023-01-28T02:45:31;6.03;;;4.50;;
2462;SDS011;1243;54.298;10.172;2023-01-28T02:48:18;4.45;;;4.05;;
2462;SDS011;1243;54.298;10.172;2023-01-28T02:53:30;5.10;;;3.85;;
2462;SDS011;1243;54.298;10.172;2023-01-28T02:56:13;3.85;;;3.55;;
2462;SDS011;1243;54.298;10.172;2023-01-28T03:01:51;3.75;;;3.55;;
2462;SDS011;1243;54.298;10.172;2023-01-28T03:04:29;4.47;;;4.28;;
2462;SDS011;1243;54.298;10.172;2023-01-28T03:06:59;20.70;;;12.60;;
2462;SDS011;1243;54.298;10.172;2023-01-28T03:09:29;9.93;;;6.25;;
2462;SDS011;1243;54.298;10.172;2023-01-28T03:12:04;7.10;;;4.97;;
2462;SDS011;1243;54.298;10.172;2023-01-28T03:15:03;3.95;;;3.65;;
2462;SDS011;1243;54.298;10.172;2023-01-28T03:24:10;4.88;;;4.45;;
2462;SDS011;1243;54.298;10.172;2023-01-28T03:29:50;4.93;;;4.63;;
2462;SDS011;1243;54.298;10.172;2023-01-28T03:32:35;8.77;;;4.97;;
2462;SDS011;1243;54.298;10.172;2023-01-28T03:35:23;4.40;;;4.07;;
2462;SDS011;1243;54.298;10.172;2023-01-28T03:38:13;5.50;;;4.85;;
2462;SDS011;1243;54.298;10.172;2023-01-28T03:41:03;5.30;;;4.80;;
2462;SDS011;1243;54.298;10.172;2023-01-28T03:43:29;4.65;;;4.25;;
2462;SDS011;1243;54.298;10.172;2023-01-28T03:45:55;7.32;;;4.82;;
2462;SDS011;1243;54.298;10.172;2023-01-28T03:48:22;5.37;;;4.97;;
2462;SDS011;1243;54.298;10.172;2023-01-28T03:50:49;13.45;;;4.05;;
2462;SDS011;1243;54.298;10.172;2023-01-28T03:53:16;4.97;;;4.15;;
2462;SDS011;1243;54.298;10.172;2023-01-28T03:55:43;5.30;;;4.85;;
2462;SDS011;1243;54.298;10.172;2023-01-28T03:58:10;5.15;;;4.50;;
2462;SDS011;1243;54.298;10.172;2023-01-28T04:00:36;5.25;;;4.85;;
2462;SDS011;1243;54.298;10.172;2023-01-28T04:03:06;4.50;;;4.20;;
2462;SDS011;1243;54.298;10.172;2023-01-28T04:05:41;5.35;;;4.85;;
2462;SDS011;1243;54.298;10.172;2023-01-28T04:08:22;4.80;;;4.40;;
2462;SDS011;1243;54.298;10.172;2023-01-28T04:10:49;6.55;;;4.60;;
2462;SDS011;1243;54.298;10.172;2023-01-28T04:13:14;6.53;;;4.90;;
2462;SDS011;1243;54.298;10.172;2023-01-28T04:15:41;5.50;;;4.35;;
2462;SDS011;1243;54.298;10.172;2023-01-28T04:18:07;4.38;;;4.07;;
2462;SDS011;1243;54.298;10.172;2023-01-28T04:20:33;4.88;;;4.20;;
2462;SDS011;1243;54.298;10.172;2023-01-28T04:22:59;5.50;;;5.10;;
2462;SDS011;1243;54.298;10.172;2023-01-28T04:25:25;4.90;;;4.20;;
2462;SDS011;1243;54.298;10.172;2023-01-28T04:27:50;6.03;;;4.10;;
2462;SDS011;1243;54.298;10.172;2023-01-28T04:30:16;4.40;;;4.00;;
2462;SDS011;1243;54.298;10.172;2023-01-28T04:32:43;6.90;;;4.57;;
2462;SDS011;1243;54.298;10.172;2023-01-28T04:35:11;5.15;;;4.85;;
2462;SDS011;1243;54.298;10.172;2023-01-28T04:37:37;4.60;;;4.30;;
2462;SDS011;1243;54.298;10.172;2023-01-28T04:40:05;7.75;;;4.70;;
2462;SDS011;1243;54.298;10.172;2023-01-28T04:42:31;4.68;;;4.38;;
2462;SDS011;1243;54.298;10.172;2023-01-28T04:44:57;6.30;;;5.37;;
2462;SDS011;1243;54.298;10.172;2023-01-28T04:47:22;4.93;;;4.63;;
2462;SDS011;1243;54.298;10.172;2023-01-28T04:49:48;4.60;;;4.20;;
2462;SDS011;1243;54.298;10.172;2023-01-28T04:52:15;5.40;;;5.00;;
2462;SDS011;1243;54.298;10.172;2023-01-28T04:54:40;6.47;;;4.73;;
2462;SDS011;1243;54.298;10.172;2023-01-28T04:57:06;6.00;;;5.60;;
2462;SDS011;1243;54.298;10.172;2023-01-28T04:59:32;5.23;;;4.73;;
2462;SDS011;1243;54.298;10.172;2023-01-28T05:01:57;5.93;;;5.20;;
2462;SDS011;1243;54.298;10.172;2023-01-28T05:04:23;5.10;;;4.60;;
2462;SDS011;1243;54.298;10.172;2023-01-28T05:06:49;6.40;;;5.80;;
2462;SDS011;1243;54.298;10.172;2023-01-28T05:09:15;6.37;;;5.87;;
2462;SDS011;1243;54.298;10.172;2023-01-28T05:11:40;12.07;;;6.10;;
2462;SDS011;1243;54.298;10.172;2023-01-28T05:14:06;6.13;;;5.40;;
2462;SDS011;1243;54.298;10.172;2023-01-28T05:16:32;7.38;;;5.70;;
2462;SDS011;1243;54.298;10.172;2023-01-28T05:18:59;5.25;;;4.85;;
2462;SDS011;1243;54.298;10.172;2023-01-28T05:21:25;6.72;;;5.10;;
2462;SDS011;1243;54.298;10.172;2023-01-28T05:23:52;6.50;;;5.13;;
2462;SDS011;1243;54.298;10.172;2023-01-28T05:26:18;6.88;;;5.55;;
2462;SDS011;1243;54.298;10.172;2023-01-28T05:28:44;6.37;;;5.77;;
2462;SDS011;1243;54.298;10.172;2023-01-28T05:31:09;6.93;;;5.70;;
2462;SDS011;1243;54.298;10.172;2023-01-28T05:33:35;7.00;;;5.73;;
2462;SDS011;1243;54.298;10.172;2023-01-28T05:36:01;6.90;;;5.50;;
2462;SDS011;1243;54.298;10.172;2023-01-28T05:38:27;7.78;;;5.47;;
2462;SDS011;1243;54.298;10.172;2023-01-28T05:40:53;14.10;;;7.07;;
2462;SDS011;1243;54.298;10.172;2023-01-28T05:43:18;6.40;;;5.90;;
2462;SDS011;1243;54.298;10.172;2023-01-28T05:45:45;6.10;;;5.30;;
2462;SDS011;1243;54.298;10.172;2023-01-28T05:48:11;8.27;;;6.72;;
2462;SDS011;1243;54.298;10.172;2023-01-28T05:50:37;7.13;;;6.22;;
2462;SDS011;1243;54.298;10.172;2023-01-28T05:53:06;7.23;;;6.53;;
2462;SDS011;1243;54.298;10.172;2023-01-28T05:55:32;6.53;;;5.93;;
2462;SDS011;1243;54.298;10.172;2023-01-28T05:57:58;7.53;;;5.67;;
2462;SDS011;1243;54.298;10.172;2023-01-28T06:00:24;7.97;;;6.53;;
2462;SDS011;1243;54.298;10.172;2023-01-28T06:02:50;6.43;;;5.90;;
2462;SDS011;1243;54.298;10.172;2023-01-28T06:05:16;7.78;;;6.55;;
2462;SDS011;1243;54.298;10.172;2023-01-28T06:07:43;8.02;;;6.57;;
2462;SDS011;1243;54.298;10.172;2023-01-28T06:10:10;6.55;;;6.05;;
2462;SDS011;1243;54.298;10.172;2023-01-28T06:12:36;8.70;;;6.30;;
2462;SDS011;1243;54.298;10.172;2023-01-28T06:15:01;12.23;;;6.53;;
2462;SDS011;1243;54.298;10.172;2023-01-28T06:17:27;10.00;;;6.60;;
2462;SDS011;1243;54.298;10.172;2023-01-28T06:19:53;9.77;;;6.40;;
2462;SDS011;1243;54.298;10.172;2023-01-28T06:22:19;7.13;;;6.40;;
2462;SDS011;1243;54.298;10.172;2023-01-28T06:24:44;6.90;;;6.30;;
2462;SDS011;1243;54.298;10.172;2023-01-28T06:27:10;11.30;;;6.33;;
2462;SDS011;1243;54.298;10.172;2023-01-28T06:29:36;13.73;;;7.20;;
2462;SDS011;1243;54.298;10.172;2023-01-28T06:32:02;7.20;;;6.47;;
2462;SDS011;1243;54.298;10.172;2023-01-28T06:34:27;6.40;;;5.90;;
2462;SDS011;1243;54.298;10.172;2023-01-28T06:36:53;9.83;;;7.20;;
2462;SDS011;1243;54.298;10.172;2023-01-28T06:39:19;6.50;;;5.90;;
2462;SDS011;1243;54.298;10.172;2023-01-28T06:41:46;7.32;;;6.60;;
2462;SDS011;1243;54.298;10.172;2023-01-28T06:44:12;9.00;;;6.90;;
2462;SDS011;1243;54.298;10.172;2023-01-28T06:46:38;8.47;;;7.60;;
2462;SDS011;1243;54.298;10.172;2023-01-28T06:49:04;9.70;;;7.53;;
2462;SDS011;1243;54.298;10.172;2023-01-28T06:51:29;11.33;;;7.90;;
2462;SDS011;1243;54.298;10.172;2023-01-28T06:53:55;10.77;;;7.00;;
2462;SDS011;1243;54.298;10.172;2023-01-28T06:56:21;10.43;;;8.43;;
2462;SDS011;1243;54.298;10.172;2023-01-28T06:58:47;11.50;;;7.40;;
2462;SDS011;1243;54.298;10.172;2023-01-28T07:01:12;7.70;;;6.90;;
2462;SDS011;1243;54.298;10.172;2023-01-28T07:03:38;13.07;;;8.40;;
2462;SDS011;1243;54.298;10.172;2023-01-28T07:06:04;10.68;;;7.30;;
2462;SDS011;1243;54.298;10.172;2023-01-28T07:08:30;8.40;;;7.47;;
2462;SDS011;1243;54.298;10.172;2023-01-28T07:10:55;11.00;;;7.43;;
2462;SDS011;1243;54.298;10.172;2023-01-28T07:13:21;9.60;;;7.37;;
2462;SDS011;1243;54.298;10.172;2023-01-28T07:15:47;9.30;;;8.00;;
2462;SDS011;1243;54.298;10.172;2023-01-28T07:18:13;8.35;;;7.07;;
2462;SDS011;1243;54.298;10.172;2023-01-28T07:20:39;10.27;;;8.90;;
2462;SDS011;1243;54.298;10.172;2023-01-28T07:23:05;13.87;;;9.10;;
2462;SDS011;1243;54.298;10.172;2023-01-28T07:25:30;12.03;;;9.30;;
2462;SDS011;1243;54.298;10.172;2023-01-28T07:27:56;22.00;;;10.37;;
2462;SDS011;1243;54.298;10.172;2023-01-28T07:30:22;12.83;;;9.00;;
2462;SDS011;1243;54.298;10.172;2023-01-28T07:32:54;11.18;;;9.07;;
2462;SDS011;1243;54.298;10.172;2023-01-28T07:35:20;10.00;;;7.13;;
2462;SDS011;1243;54.298;10.172;2023-01-28T07:37:53;13.00;;;9.15;;
2462;SDS011;1243;54.298;10.172;2023-01-28T07:40:24;10.77;;;8.68;;
2462;SDS011;1243;54.298;10.172;2023-01-28T07:42:50;10.73;;;8.25;;
2462;SDS011;1243;54.298;10.172;2023-01-28T07:45:18;10.90;;;8.45;;
2462;SDS011;1243;54.298;10.172;2023-01-28T07:47:44;12.30;;;8.70;;
2462;SDS011;1243;54.298;10.172;2023-01-28T07:50:17;9.05;;;8.15;;
2462;SDS011;1243;54.298;10.172;2023-01-28T07:52:43;10.43;;;7.93;;
2462;SDS011;1243;54.298;10.172;2023-01-28T07:55:12;12.23;;;7.90;;
2462;SDS011;1243;54.298;10.172;2023-01-28T07:57:52;14.20;;;9.57;;
2462;SDS011;1243;54.298;10.172;2023-01-28T08:00:23;17.50;;;8.35;;
2462;SDS011;1243;54.298;10.172;2023-01-28T08:02:49;12.15;;;8.95;;
2462;SDS011;1243;54.298;10.172;2023-01-28T08:05:20;17.23;;;8.65;;
2462;SDS011;1243;54.298;10.172;2023-01-28T08:07:46;10.30;;;8.43;;
2462;SDS011;1243;54.298;10.172;2023-01-28T08:10:13;9.80;;;8.57;;
2462;SDS011;1243;54.298;10.172;2023-01-28T08:12:40;12.38;;;8.93;;
2462;SDS011;1243;54.298;10.172;2023-01-28T08:15:15;13.43;;;9.68;;
2462;SDS011;1243;54.298;10.172;2023-01-28T08:17:40;12.63;;;9.33;;
2462;SDS011;1243;54.298;10.172;2023-01-28T08:20:06;12.37;;;9.57;;
2462;SDS011;1243;54.298;10.172;2023-01-28T08:22:33;14.52;;;9.55;;
2462;SDS011;1243;54.298;10.172;2023-01-28T08:24:59;10.00;;;8.37;;
2462;SDS011;1243;54.298;10.172;2023-01-28T08:27:25;9.60;;;8.70;;
2462;SDS011;1243;54.298;10.172;2023-01-28T08:29:50;13.70;;;8.50;;
2462;SDS011;1243;54.298;10.172;2023-01-28T08:32:16;13.63;;;8.97;;
2462;SDS011;1243;54.298;10.172;2023-01-28T08:34:42;11.67;;;9.07;;
2462;SDS011;1243;54.298;10.172;2023-01-28T08:37:08;17.70;;;9.50;;
2462;SDS011;1243;54.298;10.172;2023-01-28T08:39:33;12.70;;;8.73;;
2462;SDS011;1243;54.298;10.172;2023-01-28T08:41:59;10.40;;;8.10;;
2462;SDS011;1243;54.298;10.172;2023-01-28T08:44:24;13.20;;;8.63;;
2462;SDS011;1243;54.298;10.172;2023-01-28T08:46:50;15.23;;;11.07;;
2462;SDS011;1243;54.298;10.172;2023-01-28T08:49:16;11.87;;;8.73;;
2462;SDS011;1243;54.298;10.172;2023-01-28T08:51:41;11.23;;;8.27;;
2462;SDS011;1243;54.298;10.172;2023-01-28T08:54:07;9.60;;;8.60;;
2462;SDS011;1243;54.298;10.172;2023-01-28T08:56:33;12.70;;;8.97;;
2462;SDS011;1243;54.298;10.172;2023-01-28T08:58:58;12.50;;;9.23;;
2462;SDS011;1243;54.298;10.172;2023-01-28T09:01:24;13.47;;;8.90;;
2462;SDS011;1243;54.298;10.172;2023-01-28T09:03:53;10.95;;;7.97;;
2462;SDS011;1243;54.298;10.172;2023-01-28T09:06:19;11.70;;;9.20;;
2462;SDS011;1243;54.298;10.172;2023-01-28T09:08:44;13.07;;;9.93;;
2462;SDS011;1243;54.298;10.172;2023-01-28T09:11:10;12.13;;;9.20;;
2462;SDS011;1243;54.298;10.172;2023-01-28T09:13:36;9.33;;;8.43;;
2462;SDS011;1243;54.298;10.172;2023-01-28T09:16:05;10.77;;;7.67;;
2462;SDS011;1243;54.298;10.172;2023-01-28T09:18:31;12.33;;;9.60;;
2462;SDS011;1243;54.298;10.172;2023-01-28T09:20:56;15.70;;;9.17;;
2462;SDS011;1243;54.298;10.172;2023-01-28T09:23:22;11.27;;;8.60;;
2462;SDS011;1243;54.298;10.172;2023-01-28T09:25:48;13.53;;;8.83;;
2462;SDS011;1243;54.298;10.172;2023-01-28T09:28:13;14.33;;;9.40;;
2462;SDS011;1243;54.298;10.172;2023-01-28T09:30:39;11.23;;;8.97;;
2462;SDS011;1243;54.298;10.172;2023-01-28T09:33:05;12.83;;;9.40;;
2462;SDS011;1243;54.298;10.172;2023-01-28T09:35:32;16.00;;;10.70;;
2462;SDS011;1243;54.298;10.172;2023-01-28T09:37:58;18.75;;;11.10;;
2462;SDS011;1243;54.298;10.172;2023-01-28T09:40:35;14.67;;;10.27;;
2462;SDS011;1243;54.298;10.172;2023-01-28T09:45:59;16.83;;;11.93;;
2462;SDS011;1243;54.298;10.172;2023-01-28T09:48:30;20.52;;;11.70;;
2462;SDS011;1243;54.298;10.172;2023-01-28T09:51:02;18.05;;;11.00;;
2462;SDS011;1243;54.298;10.172;2023-01-28T09:53:36;16.05;;;12.30;;
2462;SDS011;1243;54.298;10.172;2023-01-28T09:56:12;14.68;;;10.88;;
2462;SDS011;1243;54.298;10.172;2023-01-28T09:58:41;13.65;;;10.52;;
2462;SDS011;1243;54.298;10.172;2023-01-28T10:15:34;14.60;;;10.30;;
2462;SDS011;1243;54.298;10.172;2023-01-28T10:18:09;15.93;;;11.43;;
2462;SDS011;1243;54.298;10.172;2023-01-28T10:20:37;24.43;;;13.63;;
2462;SDS011;1243;54.298;10.172;2023-01-28T10:23:23;18.50;;;12.90;;
2462;SDS011;1243;54.298;10.172;2023-01-28T10:25:55;19.83;;;12.38;;
2462;SDS011;1243;54.298;10.172;2023-01-28T10:28:28;19.23;;;12.83;;
2462;SDS011;1243;54.298;10.172;2023-01-28T10:30:54;18.45;;;11.23;;
2462;SDS011;1243;54.298;10.172;2023-01-28T10:35:52;18.92;;;11.60;;
2462;SDS011;1243;54.298;10.172;2023-01-28T10:38:20;22.02;;;12.60;;
2462;SDS011;1243;54.298;10.172;2023-01-28T10:40:47;23.05;;;12.95;;
2462;SDS011;1243;54.298;10.172;2023-01-28T10:43:16;21.60;;;12.23;;
2462;SDS011;1243;54.298;10.172;2023-01-28T10:46:00;20.75;;;12.70;;
2462;SDS011;1243;54.298;10.172;2023-01-28T10:48:53;20.60;;;13.50;;
2462;SDS011;1243;54.298;10.172;2023-01-28T10:51:39;16.33;;;11.83;;
2462;SDS011;1243;54.298;10.172;2023-01-28T10:54:23;22.48;;;11.88;;
2462;SDS011;1243;54.298;10.172;2023-01-28T10:57:02;22.73;;;11.43;;
2462;SDS011;1243;54.298;10.172;2023-01-28T10:59:32;19.67;;;13.15;;
2462;SDS011;1243;54.298;10.172;2023-01-28T11:02:04;22.00;;;13.90;;
2462;SDS011;1243;54.298;10.172;2023-01-28T11:04:46;20.25;;;13.05;;
2462;SDS011;1243;54.298;10.172;2023-01-28T11:07:16;21.93;;;14.27;;
2462;SDS011;1243;54.298;10.172;2023-01-28T11:09:45;19.40;;;14.17;;
2462;SDS011;1243;54.298;10.172;2023-01-28T11:12:23;19.30;;;13.47;;
2462;SDS011;1243;54.298;10.172;2023-01-28T11:17:28;26.47;;;14.77;;
2462;SDS011;1243;54.298;10.172;2023-01-28T11:19:57;19.17;;;12.80;;
2462;SDS011;1243;54.298;10.172;2023-01-28T11:25:05;20.00;;;12.03;;
2462;SDS011;1243;54.298;10.172;2023-01-28T11:27:40;18.90;;;11.70;;
2462;SDS011;1243;54.298;10.172;2023-01-28T11:30:34;19.70;;;12.30;;
2462;SDS011;1243;54.298;10.172;2023-01-28T11:35:54;17.50;;;11.37;;
2462;SDS011;1243;54.298;10.172;2023-01-28T11:38:22;21.57;;;13.60;;
2462;SDS011;1243;54.298;10.172;2023-01-28T11:40:53;15.27;;;11.43;;
2462;SDS011;1243;54.298;10.172;2023-01-28T11:43:21;17.63;;;11.43;;
2462;SDS011;1243;54.298;10.172;2023-01-28T11:45:58;17.07;;;12.27;;
2462;SDS011;1243;54.298;10.172;2023-01-28T11:51:38;19.93;;;12.80;;
2462;SDS011;1243;54.298;10.172;2023-01-28T11:56:49;19.53;;;11.77;;
2462;SDS011;1243;54.298;10.172;2023-01-28T11:59:29;22.33;;;12.50;;
2462;SDS011;1243;54.298;10.172;2023-01-28T12:05:18;18.37;;;12.43;;
2462;SDS011;1243;54.298;10.172;2023-01-28T12:13:25;23.27;;;12.17;;
2462;SDS011;1243;54.298;10.172;2023-01-28T12:27:25;15.07;;;10.63;;
2462;SDS011;1243;54.298;10.172;2023-01-28T12:41:20;20.67;;;16.43;;
2462;SDS011;1243;54.298;10.172;2023-01-28T12:44:02;19.20;;;13.03;;
2462;SDS011;1243;54.298;10.172;2023-01-28T12:46:48;19.07;;;12.07;;
2462;SDS011;1243;54.298;10.172;2023-01-28T12:49:22;22.37;;;13.57;;
2462;SDS011;1243;54.298;10.172;2023-01-28T12:57:36;19.73;;;12.00;;
2462;SDS011;1243;54.298;10.172;2023-01-28T13:02:56;14.30;;;10.57;;
2462;SDS011;1243;54.298;10.172;2023-01-28T13:05:36;18.23;;;12.40;;
2462;SDS011;1243;54.298;10.172;2023-01-28T13:08:12;16.77;;;12.70;;
2462;SDS011;1243;54.298;10.172;2023-01-28T13:10:46;19.57;;;11.50;;
2462;SDS011;1243;54.298;10.172;2023-01-28T13:13:24;17.73;;;11.73;;
2462;SDS011;1243;54.298;10.172;2023-01-28T13:15:54;14.80;;;10.73;;
2462;SDS011;1243;54.298;10.172;2023-01-28T13:18:31;15.53;;;11.53;;
2462;SDS011;1243;54.298;10.172;2023-01-28T13:21:04;19.90;;;11.10;;
2462;SDS011;1243;54.298;10.172;2023-01-28T13:23:47;15.90;;;11.00;;
2462;SDS011;1243;54.298;10.172;2023-01-28T13:28:42;15.83;;;11.07;;
2462;SDS011;1243;54.298;10.172;2023-01-28T13:31:10;19.23;;;11.40;;
2462;SDS011;1243;54.298;10.172;2023-01-28T13:33:41;16.60;;;11.67;;
2462;SDS011;1243;54.298;10.172;2023-01-28T13:36:28;18.10;;;11.47;;
2462;SDS011;1243;54.298;10.172;2023-01-28T13:39:05;19.20;;;10.77;;
2462;SDS011;1243;54.298;10.172;2023-01-28T13:41:49;13.90;;;9.40;;
2462;SDS011;1243;54.298;10.172;2023-01-28T13:44:19;15.50;;;9.77;;
2462;SDS011;1243;54.298;10.172;2023-01-28T13:50:03;20.33;;;11.53;;
2462;SDS011;1243;54.298;10.172;2023-01-28T13:52:36;17.57;;;11.00;;
2462;SDS011;1243;54.298;10.172;2023-01-28T14:14:43;14.43;;;9.67;;
2462;SDS011;1243;54.298;10.172;2023-01-28T14:17:43;15.33;;;9.73;;
2462;SDS011;1243;54.298;10.172;2023-01-28T14:22:45;16.03;;;10.47;;
2462;SDS011;1243;54.298;10.172;2023-01-28T14:25:14;12.90;;;9.40;;
2462;SDS011;1243;54.298;10.172;2023-01-28T14:27:46;14.97;;;11.27;;
2462;SDS011;1243;54.298;10.172;2023-01-28T14:32:52;15.27;;;11.00;;
2462;SDS011;1243;54.298;10.172;2023-01-28T14:35:31;18.87;;;10.87;;
2462;SDS011;1243;54.298;10.172;2023-01-28T14:37:59;16.33;;;10.13;;
2462;SDS011;1243;54.298;10.172;2023-01-28T14:40:32;15.97;;;10.27;;
2462;SDS011;1243;54.298;10.172;2023-01-28T14:43:02;13.87;;;9.93;;
2462;SDS011;1243;54.298;10.172;2023-01-28T14:45:34;12.47;;;9.60;;
2462;SDS011;1243;54.298;10.172;2023-01-28T14:56:27;13.20;;;10.23;;
2462;SDS011;1243;54.298;10.172;2023-01-28T14:59:14;19.97;;;9.97;;
2462;SDS011;1243;54.298;10.172;2023-01-28T15:01:44;14.07;;;10.40;;
2462;SDS011;1243;54.298;10.172;2023-01-28T15:04:21;16.37;;;11.67;;
2462;SDS011;1243;54.298;10.172;2023-01-28T15:06:48;11.20;;;10.00;;
2462;SDS011;1243;54.298;10.172;2023-01-28T15:09:14;15.60;;;9.97;;
2462;SDS011;1243;54.298;10.172;2023-01-28T15:11:40;25.40;;;15.07;;
2462;SDS011;1243;54.298;10.172;2023-01-28T15:14:24;17.57;;;11.67;;
2462;SDS011;1243;54.298;10.172;2023-01-28T15:16:52;14.83;;;10.07;;
2462;SDS011;1243;54.298;10.172;2023-01-28T15:19:21;13.03;;;10.20;;
2462;SDS011;1243;54.298;10.172;2023-01-28T15:21:54;19.07;;;10.83;;
2462;SDS011;1243;54.298;10.172;2023-01-28T15:24:21;12.30;;;9.53;;
2462;SDS011;1243;54.298;10.172;2023-01-28T15:26:47;19.75;;;10.32;;
2462;SDS011;1243;54.298;10.172;2023-01-28T15:29:23;15.43;;;11.10;;
2462;SDS011;1243;54.298;10.172;2023-01-28T15:31:51;14.90;;;9.27;;
2462;SDS011;1243;54.298;10.172;2023-01-28T15:34:17;17.50;;;11.53;;
2462;SDS011;1243;54.298;10.172;2023-01-28T15:36:44;13.50;;;8.90;;
2462;SDS011;1243;54.298;10.172;2023-01-28T15:39:20;13.00;;;9.57;;
2462;SDS011;1243;54.298;10.172;2023-01-28T15:41:49;15.17;;;9.67;;
2462;SDS011;1243;54.298;10.172;2023-01-28T15:46:54;13.67;;;9.37;;
2462;SDS011;1243;54.298;10.172;2023-01-28T15:49:22;13.33;;;9.33;;
2462;SDS011;1243;54.298;10.172;2023-01-28T15:51:52;16.60;;;9.87;;
2462;SDS011;1243;54.298;10.172;2023-01-28T15:54:18;17.63;;;8.30;;
2462;SDS011;1243;54.298;10.172;2023-01-28T15:56:44;12.30;;;9.60;;
2462;SDS011;1243;54.298;10.172;2023-01-28T15:59:28;10.83;;;9.00;;
2462;SDS011;1243;54.298;10.172;2023-01-28T16:07:30;16.30;;;9.70;;
2462;SDS011;1243;54.298;10.172;2023-01-28T16:09:57;16.07;;;10.50;;
2462;SDS011;1243;54.298;10.172;2023-01-28T16:12:25;14.40;;;11.87;;
2462;SDS011;1243;54.298;10.172;2023-01-28T16:14:55;13.60;;;10.23;;
2462;SDS011;1243;54.298;10.172;2023-01-28T16:17:28;15.93;;;9.93;;
2462;SDS011;1243;54.298;10.172;2023-01-28T16:20:06;21.53;;;12.50;;
2462;SDS011;1243;54.298;10.172;2023-01-28T16:22:43;18.00;;;10.80;;
2462;SDS011;1243;54.298;10.172;2023-01-28T16:27:54;15.50;;;10.97;;
2462;SDS011;1243;54.298;10.172;2023-01-28T16:30:23;11.17;;;8.63;;
2462;SDS011;1243;54.298;10.172;2023-01-28T16:32:49;21.07;;;10.03;;
2462;SDS011;1243;54.298;10.172;2023-01-28T16:35:16;12.50;;;10.87;;
2462;SDS011;1243;54.298;10.172;2023-01-28T16:37:44;13.73;;;9.53;;
2462;SDS011;1243;54.298;10.172;2023-01-28T16:40:11;13.80;;;8.87;;
2462;SDS011;1243;54.298;10.172;2023-01-28T16:42:39;20.53;;;10.17;;
2462;SDS011;1243;54.298;10.172;2023-01-28T16:45:05;16.20;;;9.30;;
2462;SDS011;1243;54.298;10.172;2023-01-28T16:47:31;11.83;;;9.53;;
2462;SDS011;1243;54.298;10.172;2023-01-28T16:49:57;13.50;;;10.03;;
2462;SDS011;1243;54.298;10.172;2023-01-28T16:52:23;13.00;;;9.53;;
2462;SDS011;1243;54.298;10.172;2023-01-28T16:54:48;15.20;;;10.33;;
2462;SDS011;1243;54.298;10.172;2023-01-28T16:57:15;14.40;;;10.27;;
2462;SDS011;1243;54.298;10.172;2023-01-28T16:59:43;20.00;;;11.30;;
2462;SDS011;1243;54.298;10.172;2023-01-28T17:02:12;19.63;;;9.90;;
2462;SDS011;1243;54.298;10.172;2023-01-28T17:04:39;16.67;;;10.70;;
2462;SDS011;1243;54.298;10.172;2023-01-28T17:07:06;16.97;;;11.00;;
2462;SDS011;1243;54.298;10.172;2023-01-28T17:09:32;12.37;;;10.00;;
2462;SDS011;1243;54.298;10.172;2023-01-28T17:11:58;16.30;;;10.93;;
2462;SDS011;1243;54.298;10.172;2023-01-28T17:14:24;13.93;;;10.80;;
2462;SDS011;1243;54.298;10.172;2023-01-28T17:16:49;16.87;;;10.13;;
2462;SDS011;1243;54.298;10.172;2023-01-28T17:19:15;19.00;;;12.13;;
2462;SDS011;1243;54.298;10.172;2023-01-28T17:21:42;18.10;;;10.57;;
2462;SDS011;1243;54.298;10.172;2023-01-28T17:24:08;22.33;;;12.13;;
2462;SDS011;1243;54.298;10.172;2023-01-28T17:26:34;17.10;;;11.70;;
2462;SDS011;1243;54.298;10.172;2023-01-28T17:29:01;19.60;;;12.67;;
2462;SDS011;1243;54.298;10.172;2023-01-28T17:31:28;18.23;;;11.70;;
2462;SDS011;1243;54.298;10.172;2023-01-28T17:33:54;18.10;;;12.10;;